Time;durP1;ratioP1;P1;durP2;ratioP2;P2;SDS_P1;SDS_P2;PMS_P1;PMS_P2;Temp;Humidity;BMP_temperature;BMP_pressure;BME280_temperature;BME280_humidity;BME280_pressure;Samples;Min_cycle;Max_cycle;Signal;HPM_P1;HPM_P2
2022/06/25 00:01:37;;;;;;;10.10;6.50;;;;;;;14.50;69.44;97083.95;110186;1248;71533;-77
2022/06/25 00:05:27;;;;;;;7.40;5.40;;;;;;;14.51;67.99;97086.73;110187;1246;68455;-78
2022/06/25 00:06:58;;;;;;;6.90;5.00;;;;;;;14.53;66.32;97087.29;110214;1250;67835;-78
2022/06/25 00:09:28;;;;;;;5.70;5.00;;;;;;;14.54;66.17;97086.98;110166;1250;59684;-75
2022/06/25 00:14:46;;;;;;;6.40;5.40;;;;;;;14.56;67.72;97093.27;110186;1247;71533;-76
2022/06/25 00:17:15;;;;;;;11.10;6.90;;;;;;;14.55;70.37;97101.29;110088;1247;67742;-71
2022/06/25 00:19:44;;;;;;;8.30;6.50;;;;;;;14.49;71.13;97102.20;109914;1251;69212;-73
2022/06/25 00:22:15;;;;;;;13.70;9.10;;;;;;;14.36;70.77;97108.25;110027;1248;59751;-70
2022/06/25 00:24:44;;;;;;;9.40;7.80;;;;;;;14.24;69.86;97108.36;109991;1247;59690;-72
2022/06/25 00:27:13;;;;;;;14.00;7.70;;;;;;;14.10;71.63;97105.98;110196;1247;70797;-67
2022/06/25 00:29:43;;;;;;;12.00;8.60;;;;;;;14.03;72.53;97105.02;110155;1247;68512;-76
2022/06/25 00:32:14;;;;;;;11.70;7.90;;;;;;;13.97;71.84;97103.41;110195;1247;68639;-77
2022/06/25 00:34:45;;;;;;;10.30;7.50;;;;;;;13.92;72.65;97107.20;110221;1248;59707;-75
2022/06/25 00:37:15;;;;;;;7.70;6.70;;;;;;;13.90;72.79;97106.23;110218;1247;59768;-73
2022/06/25 00:39:44;;;;;;;8.20;5.90;;;;;;;13.87;71.52;97111.02;110193;1248;70732;-76
2022/06/25 00:42:15;;;;;;;7.00;5.30;;;;;;;13.87;70.77;97109.69;110074;1249;68060;-76
2022/06/25 00:44:45;;;;;;;7.50;5.10;;;;;;;13.88;69.30;97112.55;109722;1251;68667;-70
2022/06/25 00:47:17;;;;;;;7.80;4.70;;;;;;;13.90;68.75;97112.89;110036;1250;59751;-71
2022/06/25 00:49:47;;;;;;;7.00;4.80;;;;;;;13.89;69.49;97114.00;109772;1251;59663;-74
2022/06/25 00:52:22;;;;;;;7.20;6.10;;;;;;;13.89;71.16;97118.40;109866;1251;70752;-75
2022/06/25 00:54:58;;;;;;;8.20;6.50;;;;;;;13.85;72.96;97117.90;109931;1251;68616;-68
2022/06/25 00:57:29;;;;;;;8.40;5.60;;;;;;;13.83;72.36;97125.42;109780;1251;69397;-66
2022/06/25 01:00:14;;;;;;;7.90;6.00;;;;;;;13.81;70.63;97121.06;109820;1250;59747;-65
2022/06/25 01:02:45;;;;;;;8.80;5.90;;;;;;;13.77;72.85;97127.69;109948;1249;59696;-76
2022/06/25 01:05:17;;;;;;;8.30;6.30;;;;;;;13.70;72.10;97129.73;110088;1249;71562;-74
2022/06/25 01:07:51;;;;;;;7.00;5.50;;;;;;;13.61;71.02;97130.55;109796;1251;68648;-77
2022/06/25 01:10:21;;;;;;;11.80;7.60;;;;;;;13.56;72.14;97132.23;109958;1251;69231;-74
2022/06/25 01:12:50;;;;;;;8.00;7.00;;;;;;;13.51;74.02;97128.61;110039;1248;59708;-78
2022/06/25 01:15:22;;;;;;;9.60;6.90;;;;;;;13.48;74.01;97125.20;109950;1251;59742;-66
2022/06/25 01:17:54;;;;;;;9.20;7.20;;;;;;;13.45;71.93;97127.58;109981;1251;71494;-77
2022/06/25 01:20:26;;;;;;;10.90;5.60;;;;;;;13.40;73.81;97125.42;109730;1252;66869;-73
2022/06/25 01:22:56;;;;;;;6.80;5.60;;;;;;;13.39;73.12;97126.19;109816;1251;68496;-71
2022/06/25 01:25:36;;;;;;;8.30;6.10;;;;;;;13.39;73.71;97129.55;110082;1250;59734;-75
2022/06/25 01:28:08;;;;;;;6.70;5.40;;;;;;;13.39;73.60;97130.20;109949;1251;59760;-73
2022/06/25 01:30:39;;;;;;;7.90;6.00;;;;;;;13.39;74.98;97134.10;109942;1251;71516;-73
2022/06/25 01:33:10;;;;;;;5.90;4.90;;;;;;;13.39;75.00;97134.59;109969;1251;67583;-77
2022/06/25 01:35:43;;;;;;;7.00;5.20;;;;;;;13.39;73.94;97134.11;109997;1251;68741;-74
2022/06/25 01:38:13;;;;;;;6.00;4.90;;;;;;;13.36;74.77;97141.14;109847;1251;59691;-78
2022/06/25 01:40:43;;;;;;;8.10;5.80;;;;;;;13.35;75.07;97139.86;110059;1251;59753;-76
2022/06/25 01:43:14;;;;;;;5.80;4.80;;;;;;;13.33;74.50;97141.05;109863;1251;70820;-79
2022/06/25 01:45:44;;;;;;;;;;;;;;;13.33;74.47;97142.35;109864;1249;68869;-77
2022/06/25 01:48:16;;;;;;;6.50;5.50;;;;;;;13.31;73.90;97143.39;110107;1250;69451;-77
2022/06/25 01:50:48;;;;;;;4.40;3.70;;;;;;;13.29;74.10;97146.12;109996;1251;59735;-76
2022/06/25 01:53:19;;;;;;;6.10;4.90;;;;;;;13.30;73.65;97145.08;109923;1251;59676;-76
2022/06/25 01:55:49;;;;;;;5.80;4.80;;;;;;;13.30;75.29;97146.77;109998;1251;71522;-76
2022/06/25 01:58:19;;;;;;;5.40;4.80;;;;;;;13.32;75.74;97152.21;109812;1251;68620;-77
2022/06/25 02:00:50;;;;;;;6.70;5.40;;;;;;;13.33;74.65;97151.22;110015;1251;68624;-79
2022/06/25 02:03:22;;;;;;;5.50;4.10;;;;;;;13.34;73.55;97151.19;109842;1251;59845;-80
2022/06/25 02:05:56;;;;;;;5.10;4.60;;;;;;;13.33;72.47;97153.34;109910;1251;59668;-80
2022/06/25 02:08:33;;;;;;;4.80;4.30;;;;;;;13.34;74.67;97155.01;109897;1251;70803;-76
2022/06/25 02:11:10;;;;;;;6.20;4.90;;;;;;;13.35;75.81;97152.63;110080;1250;68398;-70
2022/06/25 02:13:41;;;;;;;6.10;4.50;;;;;;;13.34;76.46;97151.48;109938;1251;69360;-75
2022/06/25 02:16:14;;;;;;;5.30;4.30;;;;;;;13.33;76.26;97148.27;109956;1250;59767;-76
2022/06/25 02:18:44;;;;;;;5.10;4.40;;;;;;;13.31;75.13;97147.23;110150;1249;59624;-80
2022/06/25 02:21:13;;;;;;;7.30;4.70;;;;;;;13.28;76.50;97156.27;109964;1250;71364;-80
2022/06/25 02:23:46;;;;;;;7.60;4.90;;;;;;;13.24;76.51;97152.00;110065;1250;67830;-76
2022/06/25 02:26:17;;;;;;;6.30;4.50;;;;;;;13.20;77.32;97154.60;110093;1249;69523;-78
2022/06/25 02:28:50;;;;;;;4.90;4.40;;;;;;;13.17;74.49;97154.52;110061;1250;59716;-78
2022/06/25 02:31:22;;;;;;;5.40;4.50;;;;;;;13.14;73.58;97155.81;109941;1250;59700;-70
2022/06/25 02:33:52;;;;;;;5.70;4.70;;;;;;;13.12;74.89;97160.55;109981;1251;70753;-77
2022/06/25 02:36:22;;;;;;;5.00;4.30;;;;;;;13.08;76.94;97156.17;109788;1251;67730;-72
2022/06/25 02:38:52;;;;;;;5.00;4.30;;;;;;;13.04;77.02;97156.52;109926;1251;68691;-71
2022/06/25 02:41:23;;;;;;;6.50;4.00;;;;;;;13.02;75.65;97158.50;109945;1250;59780;-74
2022/06/25 02:43:55;;;;;;;5.60;4.20;;;;;;;13.00;76.56;97161.05;109847;1251;59696;-77
2022/06/25 02:46:51;;;;;;;5.10;4.10;;;;;;;13.00;76.78;97159.83;110176;1247;71698;-75
2022/06/25 02:49:24;;;;;;;5.40;4.30;;;;;;;13.01;75.22;97157.98;109959;1247;67933;-72
2022/06/25 02:51:54;;;;;;;4.50;4.00;;;;;;;13.04;77.10;97160.23;109956;1248;69470;-76
2022/06/25 02:54:26;;;;;;;5.40;3.60;;;;;;;13.04;76.48;97161.25;109945;1248;59747;-75
2022/06/25 02:59:46;;;;;;;4.60;3.90;;;;;;;13.03;76.35;97165.88;110213;1247;71560;-77
2022/06/25 03:02:17;;;;;;;4.30;3.90;;;;;;;13.03;77.21;97166.21;110061;1248;68494;-72
2022/06/25 03:04:50;;;;;;;4.70;4.20;;;;;;;13.04;77.27;97161.41;110153;1248;68524;-74
2022/06/25 03:07:20;;;;;;;4.50;3.90;;;;;;;13.05;77.22;97163.79;110018;1250;59757;-75
2022/06/25 03:09:50;;;;;;;5.40;4.30;;;;;;;13.08;77.06;97165.85;109939;1250;59710;-79
2022/06/25 03:12:21;;;;;;;5.20;4.20;;;;;;;13.08;77.44;97168.39;110147;1249;71393;-74
2022/06/25 03:14:59;;;;;;;4.80;4.30;;;;;;;13.11;74.68;97164.14;110193;1247;67672;-65
2022/06/25 03:17:29;;;;;;;4.60;3.70;;;;;;;13.11;74.39;97164.83;110133;1247;69388;-79
2022/06/25 03:20:20;;;;;;;5.20;4.50;;;;;;;13.09;73.62;97163.23;109882;1250;59766;-75
2022/06/25 03:22:54;;;;;;;5.90;4.10;;;;;;;13.09;73.66;97167.27;110176;1249;59740;-77
2022/06/25 03:25:24;;;;;;;4.40;3.80;;;;;;;13.09;73.87;97169.35;109987;1248;71332;-76
2022/06/25 03:27:54;;;;;;;;;;;;;;;13.13;73.73;97173.75;109992;1250;67794;-76
2022/06/25 03:30:25;;;;;;;6.00;4.50;;;;;;;13.19;75.55;97177.64;110133;1248;68689;-77
2022/06/25 03:32:54;;;;;;;;;;;;;;;13.26;75.94;97175.92;109985;1250;59717;-76
2022/06/25 03:35:43;;;;;;;3.60;3.20;;;;;;;13.34;75.21;97175.79;109883;1250;59749;-76
2022/06/25 03:38:17;;;;;;;4.90;4.20;;;;;;;13.42;74.38;97175.27;110174;1247;71527;-77
2022/06/25 03:40:46;;;;;;;4.30;3.90;;;;;;;13.51;77.04;97173.98;110168;1247;68602;-79
2022/06/25 03:43:18;;;;;;;5.30;4.00;;;;;;;13.59;76.59;97173.96;109981;1247;69395;-79
2022/06/25 03:45:47;;;;;;;5.60;4.00;;;;;;;13.68;76.06;97172.81;109955;1248;59700;-75
2022/06/25 03:48:17;;;;;;;6.00;4.00;;;;;;;13.78;75.57;97171.88;110168;1247;59697;-73
2022/06/25 03:51:15;;;;;;;3.80;3.40;;;;;;;13.91;73.80;97170.70;109662;1250;70686;-79
2022/06/25 03:53:45;;;;;;;4.90;4.20;;;;;;;14.03;73.77;97170.30;110161;1249;68544;-78
2022/06/25 03:56:15;;;;;;;6.70;5.20;;;;;;;14.14;73.99;97175.71;109952;1249;69452;-73
2022/06/25 03:58:46;;;;;;;5.70;4.40;;;;;;;14.17;74.37;97181.70;109968;1250;59674;-76
2022/06/25 04:01:16;;;;;;;7.50;5.30;;;;;;;14.21;74.62;97188.81;110002;1247;59697;-76
2022/06/25 04:03:46;;;;;;;7.00;4.90;;;;;;;14.29;74.38;97185.87;109859;1248;70798;-72
2022/06/25 04:06:16;;;;;;;5.10;4.60;;;;;;;14.38;73.94;97188.38;110208;1247;67773;-78
2022/06/25 04:08:52;;;;;;;6.90;5.00;;;;;;;14.46;73.88;97185.56;109990;1247;69390;-79
2022/06/25 04:11:22;;;;;;;6.30;4.80;;;;;;;14.54;73.91;97182.71;110128;1249;59698;-80
2022/06/25 04:13:54;;;;;;;5.20;4.40;;;;;;;14.64;74.26;97182.16;110190;1247;59705;-75
2022/06/25 04:16:24;;;;;;;5.40;4.40;;;;;;;14.76;74.01;97181.19;109895;1250;71364;-72
2022/06/25 04:18:54;;;;;;;5.30;4.20;;;;;;;14.89;72.89;97181.54;110189;1247;67614;-78
2022/06/25 04:21:27;;;;;;;5.90;4.50;;;;;;;15.03;72.16;97177.13;110005;1249;69385;-77
2022/06/25 04:23:56;;;;;;;7.40;5.50;;;;;;;15.15;71.21;97178.77;109831;1249;59728;-69
2022/06/25 04:26:27;;;;;;;5.50;4.30;;;;;;;15.24;71.13;97178.09;109957;1250;59631;-73
2022/06/25 04:29:04;;;;;;;8.30;4.50;;;;;;;15.33;70.83;97181.81;110143;1247;71582;-77
2022/06/25 04:31:57;;;;;;;6.70;4.80;;;;;;;15.45;71.00;97185.91;110095;1248;68545;-76
2022/06/25 04:34:49;;;;;;;6.90;5.10;;;;;;;15.55;71.37;97188.43;109889;1247;69534;-77
2022/06/25 04:37:18;;;;;;;7.80;4.80;;;;;;;15.65;71.27;97188.66;110156;1248;59768;-72
2022/06/25 04:39:47;;;;;;;5.00;4.30;;;;;;;15.78;70.77;97186.76;110185;1247;59706;-76
2022/06/25 04:42:16;;;;;;;4.90;4.40;;;;;;;15.92;70.19;97185.61;110225;1247;71684;-76
2022/06/25 04:44:45;;;;;;;6.00;4.60;;;;;;;16.08;69.73;97181.70;110165;1248;67864;-75
2022/06/25 04:47:15;;;;;;;6.20;4.50;;;;;;;16.25;69.38;97182.14;110114;1249;69699;-78
2022/06/25 04:49:50;;;;;;;5.70;5.10;;;;;;;16.44;68.71;97185.46;110117;1247;59723;-78
2022/06/25 04:52:20;;;;;;;6.40;5.20;;;;;;;16.64;68.17;97189.42;109901;1250;59673;-76
2022/06/25 04:54:49;;;;;;;;;;;;;;;16.84;67.77;97193.10;109961;1248;71520;-73
2022/06/25 04:57:20;;;;;;;6.00;4.50;;;;;;;17.05;67.74;97196.23;109899;1250;67621;-73
2022/06/25 05:00:11;;;;;;;7.40;5.30;;;;;;;17.28;68.00;97189.64;110192;1247;69398;-68
2022/06/25 05:02:42;;;;;;;6.40;4.60;;;;;;;17.47;67.10;97190.98;109942;1250;59809;-76
2022/06/25 05:05:14;;;;;;;5.80;4.50;;;;;;;17.68;66.97;97189.35;110150;1247;59628;-78
2022/06/25 05:07:44;;;;;;;5.40;3.80;;;;;;;17.97;66.90;97187.36;110011;1250;70831;-71
2022/06/25 05:10:13;;;;;;;4.70;4.20;;;;;;;18.41;66.28;97192.30;109948;1247;68006;-76
2022/06/25 05:15:30;;;;;;;4.70;3.60;;;;;;;19.41;61.83;97195.26;109985;1247;59692;-73
2022/06/25 05:17:59;;;;;;;;;;;;;;;20.00;62.30;97194.31;110021;1250;59693;-68
2022/06/25 05:20:28;;;;;;;3.90;3.50;;;;;;;20.56;59.15;97197.56;110074;1250;71529;-72
2022/06/25 05:22:59;;;;;;;5.70;3.80;;;;;;;20.95;56.29;97201.13;110205;1247;68614;-73
2022/06/25 05:25:29;;;;;;;3.60;3.30;;;;;;;21.24;55.92;97202.96;109971;1248;69366;-76
2022/06/25 05:27:59;;;;;;;4.00;3.60;;;;;;;21.53;55.65;97196.39;109964;1248;59774;-76
2022/06/25 05:30:29;;;;;;;4.90;3.70;;;;;;;21.72;53.76;97194.70;109880;1248;59693;-76
2022/06/25 05:32:59;;;;;;;4.70;3.60;;;;;;;21.83;53.78;97195.10;109910;1250;71601;-72
2022/06/25 05:35:28;;;;;;;6.50;4.30;;;;;;;21.82;52.25;97199.19;110199;1247;67932;-74
2022/06/25 05:38:02;;;;;;;4.80;4.30;;;;;;;21.80;52.36;97198.59;109919;1250;69611;-72
2022/06/25 05:40:31;;;;;;;4.20;3.60;;;;;;;21.75;52.24;97196.01;109792;1250;59776;-73
2022/06/25 05:43:00;;;;;;;4.10;3.40;;;;;;;21.73;52.07;97198.95;110205;1247;59695;-76
2022/06/25 05:45:29;;;;;;;3.30;3.00;;;;;;;21.78;51.60;97197.06;110195;1247;70785;-76
2022/06/25 05:47:58;;;;;;;4.70;3.90;;;;;;;21.87;51.33;97199.60;110212;1247;67969;-77
2022/06/25 05:50:28;;;;;;;4.20;3.20;;;;;;;21.90;50.68;97203.09;109931;1248;69862;-73
2022/06/25 05:52:57;;;;;;;;;;;;;;;21.95;50.77;97203.15;110113;1249;59786;-70
2022/06/25 05:55:26;;;;;;;3.00;2.70;;;;;;;22.05;50.38;97200.51;110041;1247;59756;-77
2022/06/25 05:57:56;;;;;;;4.30;3.60;;;;;;;22.12;49.30;97203.77;110212;1247;70376;-76
2022/06/25 06:00:26;;;;;;;3.50;3.10;;;;;;;22.13;47.02;97203.69;110196;1248;68691;-75
2022/06/25 06:02:55;;;;;;;3.70;3.10;;;;;;;22.14;47.45;97205.46;110218;1248;68688;-74
2022/06/25 06:05:25;;;;;;;5.00;3.20;;;;;;;22.24;48.70;97204.00;110248;1247;59710;-80
2022/06/25 06:07:54;;;;;;;3.10;2.80;;;;;;;22.32;48.07;97203.23;109962;1250;60096;-79
2022/06/25 06:10:23;;;;;;;3.40;3.00;;;;;;;22.41;47.34;97204.29;109986;1247;71612;-76
2022/06/25 06:12:52;;;;;;;3.90;2.80;;;;;;;22.50;47.18;97202.77;110318;1250;67963;-80
2022/06/25 06:15:21;;;;;;;4.60;3.00;;;;;;;22.65;46.96;97201.42;110351;1248;69286;-80
2022/06/25 06:17:50;;;;;;;3.70;2.90;;;;;;;22.73;45.93;97196.39;110333;1249;59690;-79
2022/06/25 06:20:19;;;;;;;4.10;3.10;;;;;;;22.86;46.31;97199.09;110218;1247;59679;-79
2022/06/25 06:22:48;;;;;;;3.70;3.00;;;;;;;22.96;45.91;97198.20;109969;1247;71603;-73
2022/06/25 06:25:18;;;;;;;4.30;3.10;;;;;;;23.16;45.33;97199.42;110021;1249;67775;-68
2022/06/25 06:27:46;;;;;;;3.80;2.80;;;;;;;23.44;45.28;97196.05;109907;1250;68702;-76
2022/06/25 06:30:16;;;;;;;5.70;2.60;;;;;;;23.74;43.87;97195.30;110187;1247;59841;-75
2022/06/25 06:32:46;;;;;;;;;;;;;;;24.03;41.63;97191.40;109948;1247;59630;-69
2022/06/25 06:35:16;;;;;;;4.10;2.40;;;;;;;24.35;40.65;97189.30;110193;1248;71548;-78
2022/06/25 06:37:45;;;;;;;5.70;2.70;;;;;;;24.75;40.39;97191.02;110226;1248;68570;-74
2022/06/25 06:40:15;;;;;;;3.50;2.70;;;;;;;25.01;39.50;97188.28;110007;1247;69432;-81
2022/06/25 06:42:44;;;;;;;3.60;2.40;;;;;;;25.44;39.55;97190.20;110174;1247;59638;-70
2022/06/25 06:45:13;;;;;;;4.90;3.60;;;;;;;25.79;38.73;97187.91;109965;1247;59686;-79
2022/06/25 06:47:42;;;;;;;6.00;3.30;;;;;;;26.22;38.36;97184.38;110063;1248;72156;-80
2022/06/25 06:50:11;;;;;;;4.90;3.20;;;;;;;26.60;37.48;97183.73;110189;1247;67934;-67
2022/06/25 06:52:40;;;;;;;3.30;2.60;;;;;;;26.98;37.53;97178.35;110137;1247;69447;-71
2022/06/25 06:55:09;;;;;;;;;;;;;;;27.32;35.38;97177.29;110228;1247;59796;-79
2022/06/25 06:57:38;;;;;;;;;;;;;;;27.68;35.95;97174.80;109915;1249;59707;-76
2022/06/25 07:00:13;;;;;;;3.50;2.80;;;;;;;27.99;34.95;97178.19;110197;1247;71595;-68
2022/06/25 07:02:43;;;;;;;3.50;2.30;;;;;;;28.16;34.46;97176.23;110009;1250;68708;-78
2022/06/25 07:05:12;;;;;;;3.40;2.70;;;;;;;28.39;34.27;97174.52;109911;1250;68784;-76
2022/06/25 07:07:41;;;;;;;;;;;;;;;28.57;34.04;97176.70;110170;1249;59713;-79
2022/06/25 07:10:10;;;;;;;2.60;2.20;;;;;;;28.76;33.57;97178.55;110228;1247;59634;-73
2022/06/25 07:12:39;;;;;;;2.40;1.90;;;;;;;29.02;32.81;97175.52;109877;1250;71373;-69
2022/06/25 07:15:08;;;;;;;;;;;;;;;29.41;33.31;97177.13;110233;1250;67833;-76
2022/06/25 07:17:37;;;;;;;3.60;2.40;;;;;;;29.52;31.17;97176.18;110260;1247;69520;-77
2022/06/25 07:20:07;;;;;;;3.60;2.40;;;;;;;29.86;31.43;97176.08;109934;1250;59772;-75
2022/06/25 07:22:36;;;;;;;3.00;2.10;;;;;;;29.90;30.28;97173.23;109985;1248;59670;-73
2022/06/25 07:25:06;;;;;;;3.20;2.10;;;;;;;29.89;30.20;97176.61;110232;1247;70965;-70
2022/06/25 07:27:35;;;;;;;3.00;2.10;;;;;;;30.12;29.21;97171.39;109431;1248;637401;-74
2022/06/25 07:34:01;;;;;;;3.30;2.60;;;;;;;30.62;28.85;97176.05;110208;1247;59736;-74
2022/06/25 07:36:31;;;;;;;2.60;2.30;;;;;;;30.64;29.65;97174.73;110055;1247;59729;-75
2022/06/25 07:39:01;;;;;;;2.90;2.20;;;;;;;30.22;28.35;97173.04;110009;1248;71324;-75
2022/06/25 07:41:31;;;;;;;4.60;2.80;;;;;;;30.47;28.30;97173.59;109992;1250;68593;-80
2022/06/25 07:44:00;;;;;;;3.70;2.50;;;;;;;30.28;28.27;97176.02;110239;1247;70373;-80
2022/06/25 07:46:29;;;;;;;3.70;2.60;;;;;;;29.48;28.51;97174.34;110025;1248;59758;-81
2022/06/25 07:48:59;;;;;;;5.20;2.60;;;;;;;28.76;30.09;97171.94;110246;1247;59753;-82
2022/06/25 07:54:16;;;;;;;4.80;2.30;;;;;;;28.62;29.73;97169.21;109973;1249;68835;-74
2022/06/25 07:56:46;;;;;;;3.70;2.40;;;;;;;28.61;30.21;97167.38;110221;1247;69532;-78
2022/06/25 07:59:15;;;;;;;7.10;2.50;;;;;;;29.36;30.58;97170.83;109821;1250;59742;-80
2022/06/25 08:01:44;;;;;;;;;;;;;;;30.06;29.89;97165.95;110250;1247;59688;-78
2022/06/25 08:04:13;;;;;;;2.70;2.30;;;;;;;30.38;28.68;97160.77;110217;1248;70760;-83
2022/06/25 08:06:44;;;;;;;2.90;2.20;;;;;;;30.74;28.58;97160.94;109940;1247;68101;-72
2022/06/25 08:09:13;;;;;;;3.50;2.30;;;;;;;31.13;28.11;97158.12;109904;1250;69533;-79
2022/06/25 08:11:42;;;;;;;3.10;2.30;;;;;;;31.34;27.10;97158.85;110280;1247;59721;-71
2022/06/25 08:14:12;;;;;;;6.20;2.40;;;;;;;31.67;27.32;97162.50;110332;1247;59694;-75
2022/06/25 08:16:41;;;;;;;2.90;2.60;;;;;;;31.88;26.73;97164.94;110392;1247;72329;-83
2022/06/25 08:19:10;;;;;;;3.40;2.40;;;;;;;31.75;25.83;97164.77;110149;1247;67686;-81
2022/06/25 08:21:40;;;;;;;;;;;;;;;31.87;26.46;97163.73;110131;1248;68672;-81
2022/06/25 08:24:08;;;;;;;2.70;2.10;;;;;;;31.99;26.04;97161.98;110269;1247;59697;-82
2022/06/25 08:26:37;;;;;;;;;;;;;;;32.15;25.95;97161.27;110258;1247;59678;-80
2022/06/25 08:29:06;;;;;;;2.30;2.10;;;;;;;32.20;26.19;97161.10;109977;1250;71711;-78
2022/06/25 08:31:35;;;;;;;3.10;2.20;;;;;;;32.53;26.45;97154.05;110221;1247;67943;-82
2022/06/25 08:34:04;;;;;;;3.00;2.40;;;;;;;32.72;25.66;97152.91;109906;1247;68674;-79
2022/06/25 08:36:34;;;;;;;3.90;2.50;;;;;;;32.79;25.51;97151.94;110225;1248;59668;-82
2022/06/25 08:39:03;;;;;;;2.80;2.20;;;;;;;32.72;24.73;97148.37;110228;1250;59750;-77
2022/06/25 08:41:32;;;;;;;4.00;2.40;;;;;;;32.41;25.13;97146.02;109941;1247;71720;-83
2022/06/25 08:44:02;;;;;;;3.00;2.00;;;;;;;32.12;26.11;97144.27;110213;1246;68749;-77
2022/06/25 08:46:33;;;;;;;2.60;2.40;;;;;;;32.42;25.68;97145.70;110204;1247;70091;-81
2022/06/25 08:49:03;;;;;;;2.60;2.30;;;;;;;32.29;26.24;97148.55;109919;1248;59733;-70
2022/06/25 08:51:32;;;;;;;3.90;2.00;;;;;;;32.67;26.26;97147.30;110278;1247;59773;-81
2022/06/25 08:54:02;;;;;;;3.60;2.40;;;;;;;33.00;25.34;97150.80;110233;1248;71935;-74
2022/06/25 08:56:35;;;;;;;3.80;2.20;;;;;;;32.71;24.81;97149.44;109985;1250;68712;-84
2022/06/25 08:59:05;;;;;;;3.50;2.60;;;;;;;32.92;25.07;97147.33;109926;1247;68609;-84
2022/06/25 09:01:34;;;;;;;2.50;2.20;;;;;;;33.09;24.86;97142.90;110223;1247;59728;-70
2022/06/25 09:04:04;;;;;;;4.00;2.30;;;;;;;33.05;24.84;97144.61;109818;1250;59685;-82
2022/06/25 09:06:33;;;;;;;3.30;2.40;;;;;;;32.99;25.09;97146.14;110253;1247;70759;-80
2022/06/25 09:09:15;;;;;;;3.10;2.20;;;;;;;32.68;24.67;97147.09;110212;1248;68595;-77
2022/06/25 09:11:55;;;;;;;2.40;2.00;;;;;;;32.69;25.01;97146.08;110190;1247;68742;-80
2022/06/25 09:14:28;;;;;;;2.20;2.00;;;;;;;32.91;24.54;97144.67;109926;1247;59675;-69
2022/06/25 09:17:12;;;;;;;2.80;2.50;;;;;;;32.70;25.68;97148.69;109948;1249;59746;-80
2022/06/25 09:19:51;;;;;;;2.80;2.40;;;;;;;32.43;26.04;97147.65;110008;1247;71515;-77
2022/06/25 09:22:23;;;;;;;;;;;;;;;32.16;26.05;97150.15;109921;1250;69192;-83
2022/06/25 09:24:55;;;;;;;3.70;2.30;;;;;;;31.57;26.05;97147.50;110214;1247;68718;-69
2022/06/25 09:27:39;;;;;;;2.40;2.10;;;;;;;31.92;26.48;97147.58;110158;1247;59719;-83
2022/06/25 09:30:09;;;;;;;3.20;2.20;;;;;;;31.71;26.07;97149.55;110210;1249;59698;-76
2022/06/25 09:32:50;;;;;;;2.60;2.40;;;;;;;32.25;26.42;97147.75;110188;1247;72166;-80
2022/06/25 09:35:38;;;;;;;3.70;2.10;;;;;;;32.91;26.23;97149.05;110176;1249;68632;-81
2022/06/25 09:38:17;;;;;;;2.60;2.10;;;;;;;33.64;25.81;97152.11;110004;1247;69452;-83
2022/06/25 09:40:58;;;;;;;2.80;2.20;;;;;;;34.00;24.90;97140.91;110202;1247;59680;-82
2022/06/25 09:43:34;;;;;;;3.00;2.60;;;;;;;33.93;23.81;97138.29;110255;1247;59663;-79
2022/06/25 09:46:06;;;;;;;4.30;2.70;;;;;;;33.39;24.20;97145.38;110190;1247;70619;-82
2022/06/25 09:48:36;;;;;;;2.80;2.50;;;;;;;33.12;23.39;97135.42;110023;1248;68234;-83
2022/06/25 09:51:05;;;;;;;4.50;3.10;;;;;;;32.44;24.35;97130.65;110112;1247;69334;-81
2022/06/25 09:53:35;;;;;;;2.90;2.20;;;;;;;32.31;25.00;97130.15;110181;1247;59781;-81
2022/06/25 09:56:04;;;;;;;2.70;2.40;;;;;;;32.97;25.35;97132.11;109945;1250;59789;-80
2022/06/25 09:58:34;;;;;;;3.90;2.40;;;;;;;33.17;24.66;97132.75;110214;1247;70870;-82
2022/06/25 10:01:04;;;;;;;3.60;2.20;;;;;;;33.68;24.05;97126.45;110190;1247;67677;-78
2022/06/25 10:03:34;;;;;;;2.30;1.80;;;;;;;33.92;23.49;97119.97;109849;1247;69447;-83
2022/06/25 10:06:04;;;;;;;2.30;1.90;;;;;;;34.25;22.72;97119.11;110155;1247;59747;-81
2022/06/25 10:08:34;;;;;;;2.90;2.30;;;;;;;34.38;22.51;97115.96;110148;1248;59673;-80
2022/06/25 10:11:05;;;;;;;3.90;2.30;;;;;;;34.57;22.25;97116.95;110230;1247;71403;-80
2022/06/25 10:13:34;;;;;;;2.90;1.80;;;;;;;34.14;22.09;97117.02;110193;1247;68659;-80
2022/06/25 10:16:03;;;;;;;2.00;1.80;;;;;;;33.79;22.25;97120.41;110180;1247;69241;-82
2022/06/25 10:18:36;;;;;;;3.50;3.00;;;;;;;33.13;22.66;97116.75;110181;1247;59703;-80
2022/06/25 10:21:05;;;;;;;2.30;2.10;;;;;;;32.45;22.78;97118.17;110218;1247;59703;-80
2022/06/25 10:23:41;;;;;;;3.30;1.80;;;;;;;31.94;23.88;97111.23;110235;1247;70777;-78
2022/06/25 10:26:12;;;;;;;2.70;2.10;;;;;;;31.72;23.15;97111.39;110264;1247;67979;-74
2022/06/25 10:28:44;;;;;;;2.30;2.10;;;;;;;31.70;22.98;97108.56;110202;1248;69527;-81
2022/06/25 10:31:16;;;;;;;3.40;2.40;;;;;;;31.47;23.23;97108.13;110102;1248;59956;-80
2022/06/25 10:34:03;;;;;;;2.70;2.00;;;;;;;31.55;23.49;97108.81;110105;1250;59757;-75
2022/06/25 10:36:41;;;;;;;2.40;2.10;;;;;;;31.90;22.87;97105.22;110176;1249;70827;-78
2022/06/25 10:39:22;;;;;;;2.60;2.40;;;;;;;32.17;22.10;97100.35;110019;1250;68814;-76
2022/06/25 10:45:11;;;;;;;2.80;2.00;;;;;;;32.21;22.19;97099.20;110180;1247;59705;-78
2022/06/25 10:47:48;;;;;;;2.90;2.00;;;;;;;32.38;22.62;97102.05;110170;1247;59687;-80
2022/06/25 10:50:22;;;;;;;2.30;1.90;;;;;;;32.53;22.21;97102.14;110180;1248;70022;-77
2022/06/25 10:53:01;;;;;;;2.80;2.50;;;;;;;32.61;23.70;97102.45;110176;1248;68310;-80
2022/06/25 10:55:46;;;;;;;3.30;2.60;;;;;;;32.47;24.58;97101.98;110128;1248;69428;-77
2022/06/25 10:58:27;;;;;;;3.20;2.50;;;;;;;32.22;24.87;97098.05;110147;1249;59697;-78
2022/06/25 11:00:59;;;;;;;2.70;2.50;;;;;;;31.74;25.37;97096.83;110017;1247;59760;-79
2022/06/25 11:03:29;;;;;;;5.60;2.30;;;;;;;31.27;25.91;97096.98;109879;1247;71520;-78
2022/06/25 11:06:17;;;;;;;4.40;2.40;;;;;;;30.90;26.47;97093.73;110149;1249;67956;-74
2022/06/25 11:08:47;;;;;;;4.40;2.30;;;;;;;30.64;26.48;97095.80;110148;1247;68441;-78
2022/06/25 11:11:33;;;;;;;2.60;2.00;;;;;;;30.44;26.85;97096.33;110174;1247;59691;-78
2022/06/25 11:14:11;;;;;;;2.10;1.90;;;;;;;30.49;26.92;97093.80;109912;1250;59628;-78
2022/06/25 11:16:39;;;;;;;2.50;2.10;;;;;;;30.96;26.93;97089.22;110179;1248;70839;-70
2022/06/25 11:19:09;;;;;;;;;;;;;;;31.48;25.02;97086.02;110188;1247;68608;-79
2022/06/25 11:21:39;;;;;;;;;;;;;;;31.96;25.28;97080.14;110152;1247;69436;-74
2022/06/25 11:24:12;;;;;;;3.30;1.80;;;;;;;31.94;24.03;97079.37;110157;1247;59702;-80
2022/06/25 11:29:39;;;;;;;3.80;2.80;;;;;;;30.88;24.51;97082.30;110185;1247;70801;-69
2022/06/25 11:32:09;;;;;;;3.00;2.50;;;;;;;30.50;24.93;97080.60;110039;1247;68732;-79
2022/06/25 11:34:38;;;;;;;2.70;2.20;;;;;;;30.63;26.03;97077.02;110124;1247;69440;-81
2022/06/25 11:37:12;;;;;;;4.00;2.50;;;;;;;30.92;25.57;97078.71;109966;1249;59716;-79
2022/06/25 11:39:44;;;;;;;3.10;2.50;;;;;;;31.31;24.76;97071.00;110148;1247;59745;-74
2022/06/25 11:42:14;;;;;;;3.40;3.10;;;;;;;31.42;24.88;97071.68;110175;1248;70849;-79
2022/06/25 11:44:47;;;;;;;4.40;3.20;;;;;;;31.36;25.20;97069.72;110210;1248;68807;-80
2022/06/25 11:47:27;;;;;;;3.90;3.10;;;;;;;30.83;25.46;97068.14;110124;1247;68719;-78
2022/06/25 11:49:56;;;;;;;3.30;2.90;;;;;;;30.82;25.71;97069.92;110191;1248;59754;-78
2022/06/25 11:52:26;;;;;;;4.00;2.60;;;;;;;30.96;25.19;97065.86;109984;1247;59702;-81
2022/06/25 11:54:55;;;;;;;3.10;2.10;;;;;;;31.17;25.19;97059.16;110215;1248;71543;-78
2022/06/25 11:57:28;;;;;;;2.90;2.30;;;;;;;31.35;25.06;97058.08;110213;1247;68624;-67
2022/06/25 11:59:57;;;;;;;2.80;2.50;;;;;;;31.58;24.36;97055.21;110137;1247;69440;-71
2022/06/25 12:02:26;;;;;;;;;;;;;;;31.64;24.49;97053.16;109996;1249;59712;-75
2022/06/25 12:04:57;;;;;;;3.30;2.60;;;;;;;31.83;24.32;97054.45;110031;1247;59742;-80
2022/06/25 12:07:31;;;;;;;3.50;2.30;;;;;;;31.88;24.64;97047.27;110005;1250;70859;-79
2022/06/25 12:10:10;;;;;;;4.40;3.00;;;;;;;31.77;24.43;97042.73;110178;1247;67955;-78
2022/06/25 12:12:40;;;;;;;5.30;2.30;;;;;;;31.56;24.68;97043.09;109942;1249;69537;-78